Time;durP1;ratioP1;P1;durP2;ratioP2;P2;SDS_P1;SDS_P2;PMS_P1;PMS_P2;Temp;Humidity;BMP_temperature;BMP_pressure;BME280_temperature;BME280_humidity;BME280_pressure;Samples;Min_cycle;Max_cycle;Signal;HPM_P1;HPM_P2
2022/02/16 00:00:36;;;;;;;30.65;18.30;;;;;;;6.75;100.00;100200.75;5070367;28;20119;-78
2022/02/16 00:03:01;;;;;;;31.05;18.83;;;;;;;6.71;100.00;100204.22;5068832;28;20030;-76
2022/02/16 00:05:28;;;;;;;32.38;19.42;;;;;;;6.73;100.00;100184.13;5070135;28;20033;-76
2022/02/16 00:07:53;;;;;;;31.50;17.75;;;;;;;6.75;100.00;100175.34;5070200;28;20459;-76
2022/02/16 00:10:18;;;;;;;32.42;18.63;;;;;;;6.77;100.00;100173.63;5069832;28;20460;-76
2022/02/16 00:12:46;;;;;;;30.75;18.17;;;;;;;6.75;100.00;100158.72;5069388;28;20490;-80
2022/02/16 00:15:13;;;;;;;31.98;19.42;;;;;;;6.76;100.00;100152.63;5070156;28;20039;-76
2022/02/16 00:17:39;;;;;;;30.90;18.58;;;;;;;6.79;100.00;100157.91;5070050;28;20025;-75
2022/02/16 00:20:06;;;;;;;31.52;19.08;;;;;;;6.78;100.00;100158.75;5068903;28;20538;-77
2022/02/16 00:22:31;;;;;;;31.75;19.30;;;;;;;6.77;100.00;100154.34;5069267;28;20020;-78
2022/02/16 00:24:57;;;;;;;31.77;20.02;;;;;;;6.82;100.00;100164.94;5069308;28;20032;-76
2022/02/16 00:27:22;;;;;;;33.05;20.17;;;;;;;6.76;100.00;100155.25;5069633;28;20067;-77
2022/02/16 00:29:47;;;;;;;33.70;19.90;;;;;;;6.79;100.00;100153.50;5069988;28;20035;-76
2022/02/16 00:32:14;;;;;;;31.65;19.40;;;;;;;6.82;100.00;100144.78;5069329;28;20031;-76
2022/02/16 00:34:39;;;;;;;30.30;18.90;;;;;;;6.82;100.00;100149.16;5072574;28;20028;-76
2022/02/16 00:37:05;;;;;;;31.88;19.17;;;;;;;6.80;100.00;100159.63;5073778;28;20116;-76
2022/02/16 00:39:30;;;;;;;31.85;19.48;;;;;;;6.83;100.00;100137.75;5073422;28;20021;-76
2022/02/16 00:41:55;;;;;;;30.20;18.23;;;;;;;6.88;100.00;100136.94;5073429;28;20154;-76
2022/02/16 00:44:21;;;;;;;31.15;18.38;;;;;;;6.85;100.00;100147.44;5072765;28;20029;-76
2022/02/16 00:46:46;;;;;;;30.60;18.20;;;;;;;6.89;100.00;100141.34;5073343;28;20100;-76
2022/02/16 00:49:11;;;;;;;31.67;17.90;;;;;;;6.91;100.00;100131.72;5073500;28;20097;-76
2022/02/16 00:51:38;;;;;;;31.27;17.92;;;;;;;6.92;100.00;100130.84;5073465;28;20021;-77
2022/02/16 00:54:03;;;;;;;30.45;17.55;;;;;;;6.91;100.00;100129.06;5072322;28;20100;-76
2022/02/16 00:56:28;;;;;;;30.67;17.90;;;;;;;6.92;100.00;100115.09;5072866;28;20613;-75
2022/02/16 00:58:54;;;;;;;31.40;18.10;;;;;;;6.92;100.00;100117.72;5071889;28;20033;-76
2022/02/16 01:01:19;;;;;;;29.35;17.52;;;;;;;6.98;100.00;100106.38;5073329;28;20040;-76
2022/02/16 01:03:44;;;;;;;28.92;16.60;;;;;;;6.97;100.00;100105.50;5072831;28;20384;-76
2022/02/16 01:06:10;;;;;;;29.70;15.80;;;;;;;7.05;100.00;100096.75;5073146;28;20024;-76
2022/02/16 01:08:35;;;;;;;30.77;16.92;;;;;;;6.97;100.00;100092.38;5073180;28;20039;-77
2022/02/16 01:11:00;;;;;;;29.50;16.52;;;;;;;7.04;100.00;100081.88;5055186;28;20115;-76
2022/02/16 01:13:26;;;;;;;29.63;17.42;;;;;;;7.00;100.00;100080.09;5072264;28;20020;-75
2022/02/16 01:15:52;;;;;;;28.90;17.58;;;;;;;6.95;100.00;100087.97;5072898;28;20033;-75
2022/02/16 01:18:17;;;;;;;30.25;17.30;;;;;;;6.97;100.00;100087.09;5072621;28;20376;-78
2022/02/16 01:20:43;;;;;;;31.02;18.40;;;;;;;6.99;100.00;100095.00;5072835;28;20050;-78
2022/02/16 01:23:09;;;;;;;28.88;16.98;;;;;;;7.01;100.00;100093.25;5072787;28;20040;-77
2022/02/16 01:25:34;;;;;;;29.65;17.40;;;;;;;7.02;100.00;100091.50;5071361;28;20070;-76
2022/02/16 01:28:00;;;;;;;32.00;17.58;;;;;;;6.94;100.00;100081.81;5072193;28;20112;-77
2022/02/16 01:30:26;;;;;;;29.80;16.35;;;;;;;6.97;100.00;100070.44;5072486;28;20028;-77
2022/02/16 01:32:52;;;;;;;29.52;17.77;;;;;;;6.96;100.00;100069.56;5072163;28;20031;-76
2022/02/16 01:35:17;;;;;;;28.70;15.18;;;;;;;6.97;100.00;100071.34;5072008;28;20055;-77
2022/02/16 01:37:43;;;;;;;28.40;15.32;;;;;;;7.05;100.00;100070.47;5071412;28;20090;-77
2022/02/16 01:40:08;;;;;;;28.25;16.23;;;;;;;7.02;100.00;100052.97;5072568;28;20029;-77
2022/02/16 01:42:34;;;;;;;26.77;14.82;;;;;;;7.06;100.00;100064.38;5072127;28;20040;-81
2022/02/16 01:44:59;;;;;;;27.60;15.18;;;;;;;7.07;100.00;100050.38;5071639;28;20463;-77
2022/02/16 01:47:24;;;;;;;26.20;14.38;;;;;;;7.07;100.00;100055.63;5072219;28;20028;-78
2022/02/16 01:49:51;;;;;;;27.80;15.73;;;;;;;7.01;100.00;100051.19;5072634;28;20083;-77
2022/02/16 01:52:16;;;;;;;25.75;14.20;;;;;;;7.04;100.00;100047.72;5071542;28;20052;-77
2022/02/16 01:54:41;;;;;;;26.48;14.23;;;;;;;7.03;100.00;100053.84;5072191;28;20105;-75
2022/02/16 01:57:07;;;;;;;27.27;14.57;;;;;;;7.06;100.00;100043.34;5072523;28;20047;-74
2022/02/16 01:59:34;;;;;;;25.80;14.82;;;;;;;7.05;100.00;100036.31;5071917;28;20098;-75
2022/02/16 02:01:59;;;;;;;26.88;15.27;;;;;;;7.03;100.00;100032.81;5072003;28;20029;-74
2022/02/16 02:04:25;;;;;;;26.85;15.13;;;;;;;7.05;100.00;100031.97;5071974;28;20039;-74
2022/02/16 02:06:50;;;;;;;27.20;14.18;;;;;;;7.05;100.00;100010.94;5071724;28;20023;-75
2022/02/16 02:09:16;;;;;;;26.85;13.80;;;;;;;7.06;100.00;100009.16;5072061;28;20028;-74
2022/02/16 02:11:42;;;;;;;25.95;13.70;;;;;;;7.06;100.00;99996.03;5071862;28;20095;-80
2022/02/16 02:14:09;;;;;;;24.40;13.40;;;;;;;7.06;100.00;99991.69;5071315;28;20028;-74
2022/02/16 02:16:40;;;;;;;25.45;12.82;;;;;;;7.09;100.00;99970.66;5071107;28;20044;-76
2022/02/16 02:19:06;;;;;;;25.75;13.13;;;;;;;7.05;100.00;99982.03;5072011;28;20391;-75
2022/02/16 02:21:31;;;;;;;23.90;11.75;;;;;;;7.06;100.00;99975.00;5071962;28;20131;-77
2022/02/16 02:23:58;;;;;;;24.42;12.73;;;;;;;7.05;100.00;99973.25;5071307;28;20020;-75
2022/02/16 02:26:24;;;;;;;23.58;12.20;;;;;;;7.07;100.00;99961.00;5071262;28;20067;-85
2022/02/16 02:28:51;;;;;;;24.80;11.93;;;;;;;7.07;100.00;99968.88;5071513;28;20060;-75
2022/02/16 02:31:27;;;;;;;24.92;11.80;;;;;;;7.06;100.00;99961.88;5070841;28;20028;-79
2022/02/16 02:33:52;;;;;;;23.77;11.55;;;;;;;7.08;100.00;99953.13;5070183;28;20024;-75
2022/02/16 02:36:17;;;;;;;23.25;11.38;;;;;;;7.10;100.00;99972.38;5069476;28;20052;-75
2022/02/16 02:38:43;;;;;;;23.95;11.13;;;;;;;7.12;100.00;99970.66;5071117;28;20024;-75
2022/02/16 02:41:08;;;;;;;22.95;11.13;;;;;;;7.14;100.00;99955.78;5071304;28;20043;-74
2022/02/16 02:43:39;;;;;;;22.50;10.27;;;;;;;7.15;100.00;99957.53;5070730;28;20021;-75
2022/02/16 02:46:04;;;;;;;22.20;10.88;;;;;;;7.12;100.00;99956.63;5070642;28;20127;-76
2022/02/16 02:48:29;;;;;;;22.20;10.63;;;;;;;7.04;100.00;99943.47;5071350;28;20475;-74
2022/02/16 02:50:55;;;;;;;23.00;10.95;;;;;;;7.08;100.00;99931.22;5070202;28;20047;-74
2022/02/16 02:53:21;;;;;;;21.15;9.80;;;;;;;7.08;100.00;99923.34;5070690;28;20048;-78
2022/02/16 02:55:47;;;;;;;22.17;9.70;;;;;;;7.08;100.00;99928.59;5070337;28;20025;-77
2022/02/16 02:58:13;;;;;;;22.38;9.68;;;;;;;7.11;100.00;99931.25;5070685;28;20067;-76
2022/02/16 03:00:39;;;;;;;23.23;9.45;;;;;;;7.10;100.00;99937.34;5070971;28;20107;-76
2022/02/16 03:03:04;;;;;;;21.08;9.30;;;;;;;7.12;100.00;99943.47;5070627;28;20024;-76
2022/02/16 03:05:30;;;;;;;21.92;10.15;;;;;;;7.10;100.00;99940.84;5070326;28;20028;-74
2022/02/16 03:07:55;;;;;;;21.45;9.25;;;;;;;7.11;100.00;99934.72;5070614;28;20119;-76
2022/02/16 03:10:21;;;;;;;20.80;8.80;;;;;;;7.15;100.00;99928.63;5070607;28;20422;-75
2022/02/16 03:12:46;;;;;;;22.23;10.07;;;;;;;7.15;100.00;99927.75;5070301;28;20029;-81
2022/02/16 03:15:11;;;;;;;22.23;9.63;;;;;;;7.13;100.00;99935.59;5070642;28;20471;-76
2022/02/16 03:17:38;;;;;;;22.92;10.07;;;;;;;7.13;100.00;99940.00;5070774;28;20380;-76
2022/02/16 03:20:05;;;;;;;23.33;10.30;;;;;;;7.15;100.00;99912.00;5070322;28;20094;-75
2022/02/16 03:22:30;;;;;;;22.75;9.70;;;;;;;7.12;100.00;99917.19;5070466;28;20123;-80
2022/02/16 03:24:56;;;;;;;24.23;10.63;;;;;;;7.15;100.00;99907.59;5070733;28;20099;-78
2022/02/16 03:27:22;;;;;;;23.67;11.10;;;;;;;7.12;100.00;99906.69;5070316;28;20021;-79
2022/02/16 03:29:47;;;;;;;24.65;11.20;;;;;;;7.07;100.00;99914.56;5070666;28;20027;-73
2022/02/16 03:32:13;;;;;;;24.17;12.07;;;;;;;7.10;100.00;99906.69;5069921;28;20077;-82
2022/02/16 03:34:38;;;;;;;23.67;10.63;;;;;;;7.14;100.00;99899.72;5070433;28;20390;-73
2022/02/16 03:37:04;;;;;;;23.50;10.65;;;;;;;7.17;100.00;99912.00;5049802;28;20033;-79
2022/02/16 03:39:31;;;;;;;24.30;10.68;;;;;;;7.19;100.00;99892.69;5050295;28;20491;-79
2022/02/16 03:41:56;;;;;;;24.75;10.88;;;;;;;7.18;100.00;99884.81;5050161;28;20056;-78
2022/02/16 03:44:21;;;;;;;24.70;11.48;;;;;;;7.10;100.00;99883.03;5050112;28;20059;-75
2022/02/16 03:46:47;;;;;;;24.67;11.52;;;;;;;7.10;100.00;99872.53;5050176;28;20033;-73
2022/02/16 03:49:12;;;;;;;25.83;11.50;;;;;;;7.12;100.00;99869.91;5050512;28;20040;-79
2022/02/16 03:51:38;;;;;;;25.30;11.52;;;;;;;7.12;100.00;99864.63;5050712;28;20021;-79
2022/02/16 03:54:03;;;;;;;24.52;11.50;;;;;;;7.15;100.00;99865.53;5049903;28;20111;-81
2022/02/16 03:56:29;;;;;;;26.02;11.90;;;;;;;7.15;100.00;99860.28;5049904;28;20459;-73
2022/02/16 03:58:54;;;;;;;24.73;11.32;;;;;;;7.12;100.00;99860.28;5050485;28;20059;-77
2022/02/16 04:01:19;;;;;;;24.42;11.45;;;;;;;7.13;100.00;99843.63;5049956;28;20074;-74
2022/02/16 04:03:44;;;;;;;25.25;11.68;;;;;;;7.12;100.00;99843.59;5049555;28;20025;-76
2022/02/16 04:06:10;;;;;;;24.75;11.98;;;;;;;7.14;100.00;99837.50;5050298;28;20037;-74
2022/02/16 04:08:36;;;;;;;25.27;12.20;;;;;;;7.14;100.00;99837.50;5052832;28;20371;-74
2022/02/16 04:11:01;;;;;;;25.08;12.43;;;;;;;7.12;100.00;99817.31;5054169;28;20484;-74
2022/02/16 04:13:27;;;;;;;24.73;12.00;;;;;;;7.20;100.00;99807.72;5053793;28;20025;-77
2022/02/16 04:15:52;;;;;;;23.70;11.60;;;;;;;7.19;100.00;99808.59;5053876;28;20116;-74
2022/02/16 04:18:17;;;;;;;23.13;10.48;;;;;;;7.23;100.00;99793.72;5053612;28;20419;-75
2022/02/16 04:20:42;;;;;;;23.25;11.13;;;;;;;7.22;100.00;99797.19;5052703;28;20025;-75
2022/02/16 04:23:09;;;;;;;22.88;10.45;;;;;;;7.28;100.00;99766.56;5053943;28;20476;-76
2022/02/16 04:25:35;;;;;;;24.02;10.98;;;;;;;7.24;100.00;99771.81;5054010;28;20174;-75
2022/02/16 04:28:02;;;;;;;23.38;10.88;;;;;;;7.23;100.00;99765.66;5053911;28;20116;-74
2022/02/16 04:30:28;;;;;;;22.77;11.05;;;;;;;7.22;100.00;99758.63;5054046;28;20025;-73
2022/02/16 04:32:53;;;;;;;22.50;10.40;;;;;;;7.22;100.00;99753.38;5053480;28;20051;-75
2022/02/16 04:35:19;;;;;;;22.20;10.25;;;;;;;7.21;100.00;99741.13;5059189;28;20049;-77
2022/02/16 04:37:44;;;;;;;21.98;9.82;;;;;;;7.26;100.00;99735.88;5073522;28;20021;-76
2022/02/16 04:40:10;;;;;;;21.27;9.38;;;;;;;7.21;100.00;99735.88;5073524;28;20025;-73
2022/02/16 04:42:35;;;;;;;21.20;9.15;;;;;;;7.28;100.00;99728.84;5073027;28;20082;-75
2022/02/16 04:45:00;;;;;;;21.50;9.05;;;;;;;7.27;100.00;99727.97;5073441;28;20476;-74
2022/02/16 04:47:26;;;;;;;20.50;8.60;;;;;;;7.30;100.00;99714.84;5073641;28;20462;-77
2022/02/16 04:49:51;;;;;;;20.23;8.60;;;;;;;7.30;100.00;99722.72;5073636;28;20119;-74
2022/02/16 04:52:16;;;;;;;19.80;7.72;;;;;;;7.31;100.00;99723.59;5072936;28;20032;-73
2022/02/16 04:54:42;;;;;;;19.20;7.90;;;;;;;7.29;100.00;99718.34;5073470;28;20538;-73
2022/02/16 04:57:07;;;;;;;20.25;7.88;;;;;;;7.31;100.00;99713.97;5073160;28;20094;-74
2022/02/16 04:59:33;;;;;;;18.45;7.32;;;;;;;7.36;100.00;99699.94;5072567;28;20021;-74
2022/02/16 05:01:58;;;;;;;19.13;7.28;;;;;;;7.29;100.00;99713.06;5073043;28;20036;-76
2022/02/16 05:04:23;;;;;;;19.33;7.68;;;;;;;7.32;100.00;99693.78;5072504;28;20029;-74
2022/02/16 05:06:49;;;;;;;19.35;7.90;;;;;;;7.30;100.00;99685.06;5073084;28;20031;-75
2022/02/16 05:09:14;;;;;;;18.77;7.35;;;;;;;7.38;100.00;99666.63;5072656;28;20464;-79
2022/02/16 05:11:39;;;;;;;18.63;7.20;;;;;;;7.40;100.00;99685.94;5072751;28;20090;-76
2022/02/16 05:14:05;;;;;;;18.85;6.93;;;;;;;7.39;100.00;99663.13;5072555;28;20025;-75
2022/02/16 05:16:30;;;;;;;18.33;7.38;;;;;;;7.41;100.00;99653.47;5072694;28;20078;-74
2022/02/16 05:18:56;;;;;;;18.75;7.07;;;;;;;7.44;100.00;99632.44;5071841;28;20020;-74
2022/02/16 05:21:22;;;;;;;19.88;7.30;;;;;;;7.43;100.00;99649.09;5072862;28;20477;-76
2022/02/16 05:23:48;;;;;;;19.35;7.80;;;;;;;7.42;100.00;99634.19;5072276;28;20017;-76
2022/02/16 05:26:13;;;;;;;18.45;6.32;;;;;;;7.46;100.00;99641.22;5073197;28;20036;-75
2022/02/16 05:28:39;;;;;;;19.35;7.57;;;;;;;7.44;100.00;99635.06;5072599;28;20475;-74
2022/02/16 05:31:05;;;;;;;19.85;8.13;;;;;;;7.46;100.00;99634.19;5072478;28;20036;-74
2022/02/16 05:33:30;;;;;;;19.42;8.07;;;;;;;7.47;100.00;99611.38;5072536;28;20029;-76
2022/02/16 05:35:55;;;;;;;19.88;8.60;;;;;;;7.46;100.00;99612.28;5072146;28;20091;-74
2022/02/16 05:38:21;;;;;;;19.05;7.75;;;;;;;7.48;100.00;99613.16;5072014;28;20055;-74
2022/02/16 05:40:47;;;;;;;20.27;8.10;;;;;;;7.49;100.00;99596.50;5072855;28;20024;-74
2022/02/16 05:43:13;;;;;;;20.35;8.70;;;;;;;7.47;100.00;99617.53;5072377;28;20025;-76
2022/02/16 05:45:42;;;;;;;19.60;8.65;;;;;;;7.53;100.00;99594.72;5071864;28;20039;-78
2022/02/16 05:48:08;;;;;;;20.02;8.38;;;;;;;7.44;100.00;99603.50;5072050;28;20471;-74
2022/02/16 05:50:34;;;;;;;19.83;8.55;;;;;;;7.49;100.00;99600.00;5072152;28;20035;-73
2022/02/16 05:52:59;;;;;;;20.30;8.25;;;;;;;7.47;100.00;99583.34;5071632;28;20032;-74
2022/02/16 05:55:25;;;;;;;19.42;7.20;;;;;;;7.56;100.00;99574.56;5072390;28;20028;-78
2022/02/16 05:57:50;;;;;;;19.60;7.40;;;;;;;7.53;100.00;99544.75;5071928;28;20024;-76
2022/02/16 06:00:17;;;;;;;19.58;7.45;;;;;;;7.53;100.00;99555.25;5071634;28;20052;-78
2022/02/16 06:02:42;;;;;;;19.20;7.47;;;;;;;7.52;100.00;99554.41;5072087;28;20031;-74
2022/02/16 06:05:08;;;;;;;19.58;7.07;;;;;;;7.53;100.00;99550.91;5070739;28;20046;-76
2022/02/16 06:07:33;;;;;;;18.52;6.57;;;;;;;7.57;100.00;99547.38;5071622;28;20128;-72
2022/02/16 06:09:58;;;;;;;18.80;6.70;;;;;;;7.57;100.00;99526.34;5071653;28;20499;-75
2022/02/16 06:12:24;;;;;;;18.75;7.07;;;;;;;7.59;100.00;99516.69;5071160;28;20031;-74
2022/02/16 06:14:49;;;;;;;18.98;6.90;;;;;;;7.58;100.00;99519.31;5071828;28;20040;-73
2022/02/16 06:17:15;;;;;;;17.88;6.80;;;;;;;7.62;100.00;99539.47;5071590;28;20021;-73
2022/02/16 06:19:40;;;;;;;18.70;6.25;;;;;;;7.61;100.00;99545.59;5071600;28;20028;-73
2022/02/16 06:22:06;;;;;;;18.27;5.88;;;;;;;7.64;100.00;99520.16;5071525;28;20082;-74
2022/02/16 06:24:31;;;;;;;17.90;6.22;;;;;;;7.64;100.00;99522.78;5070957;28;20534;-73
2022/02/16 06:26:57;;;;;;;16.65;5.45;;;;;;;7.64;100.00;99530.66;5071607;28;20029;-74
2022/02/16 06:29:22;;;;;;;17.90;5.88;;;;;;;7.65;100.00;99532.44;5070353;28;20067;-72
2022/02/16 06:31:47;;;;;;;17.52;5.60;;;;;;;7.69;100.00;99530.66;5071390;28;20081;-74
2022/02/16 06:34:13;;;;;;;16.17;5.22;;;;;;;7.71;100.00;99507.84;5070942;28;20031;-73
2022/02/16 06:36:38;;;;;;;16.60;5.15;;;;;;;7.68;100.00;99521.03;5071211;28;20046;-73
2022/02/16 06:39:03;;;;;;;16.42;5.30;;;;;;;7.69;100.00;99501.75;5070791;28;20052;-74
2022/02/16 06:41:29;;;;;;;17.83;5.38;;;;;;;7.66;100.00;99497.34;5071322;28;20047;-77
2022/02/16 06:43:54;;;;;;;17.60;5.18;;;;;;;7.71;100.00;99520.16;5070654;28;20052;-81
2022/02/16 06:46:20;;;;;;;16.38;5.18;;;;;;;7.72;100.00;99498.19;5070846;28;20032;-83
2022/02/16 06:48:45;;;;;;;17.33;5.40;;;;;;;7.72;100.00;99508.72;5070645;28;20464;-78
2022/02/16 06:51:10;;;;;;;16.35;4.78;;;;;;;7.76;100.00;99495.56;5070895;28;20033;-79
2022/02/16 06:53:36;;;;;;;17.23;5.40;;;;;;;7.79;100.00;99490.28;5070467;28;20028;-81
2022/02/16 06:56:01;;;;;;;17.00;5.60;;;;;;;7.82;100.00;99492.00;5071377;28;20067;-80
2022/02/16 06:58:26;;;;;;;17.15;5.50;;;;;;;7.83;100.00;99463.06;5070816;28;20475;-82
2022/02/16 07:00:51;;;;;;;17.70;5.57;;;;;;;7.82;100.00;99498.16;5070549;28;20031;-77
2022/02/16 07:03:17;;;;;;;17.83;5.55;;;;;;;7.87;100.00;99489.38;5070703;28;20024;-80
2022/02/16 07:05:43;;;;;;;15.70;5.38;;;;;;;7.92;100.00;99513.88;5071022;28;20038;-84
2022/02/16 07:08:08;;;;;;;18.92;5.97;;;;;;;7.95;100.00;99490.16;5070266;28;20021;-82
2022/02/16 07:10:34;;;;;;;17.80;6.00;;;;;;;7.99;100.00;99505.94;5070310;28;20028;-79
2022/02/16 07:12:59;;;;;;;18.92;6.60;;;;;;;7.95;100.00;99493.69;5070451;28;20032;-80
2022/02/16 07:15:26;;;;;;;19.17;6.78;;;;;;;8.01;100.00;99519.09;5070529;28;20368;-77
2022/02/16 07:17:52;;;;;;;19.05;6.68;;;;;;;8.04;100.00;99498.03;5070638;28;20032;-78
2022/02/16 07:20:17;;;;;;;19.60;7.28;;;;;;;8.03;100.00;99520.81;5069731;28;20029;-81
2022/02/16 07:22:45;;;;;;;19.27;7.07;;;;;;;8.05;100.00;99509.41;5070411;28;20028;-76
2022/02/16 07:25:11;;;;;;;19.48;7.60;;;;;;;8.07;100.00;99510.25;5070554;28;20041;-80
2022/02/16 07:27:37;;;;;;;20.05;7.55;;;;;;;8.06;100.00;99525.19;5069378;28;20086;-78
2022/02/16 07:30:07;;;;;;;19.27;7.55;;;;;;;8.11;100.00;99522.53;5070392;28;20479;-80
2022/02/16 07:32:33;;;;;;;20.20;7.78;;;;;;;8.10;100.00;99528.69;5070340;28;20051;-76
2022/02/16 07:34:58;;;;;;;19.25;7.68;;;;;;;8.15;100.00;99516.34;5069971;28;20048;-82
2022/02/16 07:37:23;;;;;;;19.45;7.32;;;;;;;8.18;100.00;99513.69;5070600;28;20449;-81
2022/02/16 07:39:49;;;;;;;20.20;8.10;;;;;;;8.19;100.00;99518.09;5070533;28;20093;-80
2022/02/16 07:42:14;;;;;;;20.38;8.23;;;;;;;8.17;100.00;99526.00;5069779;28;20119;-81
2022/02/16 07:44:41;;;;;;;20.23;8.25;;;;;;;8.24;100.00;99508.38;5070665;28;20103;-77
2022/02/16 07:47:09;;;;;;;20.27;8.10;;;;;;;8.27;100.00;99515.41;5069225;28;20041;-77
2022/02/16 07:49:37;;;;;;;21.10;8.02;;;;;;;8.30;100.00;99504.84;5070064;28;20510;-78
2022/02/16 07:52:03;;;;;;;21.00;8.50;;;;;;;8.26;100.00;99517.16;5069791;28;20051;-79
2022/02/16 07:54:30;;;;;;;20.75;8.48;;;;;;;8.30;100.00;99510.09;5070541;28;20021;-77
2022/02/16 07:56:55;;;;;;;20.98;8.55;;;;;;;8.33;100.00;99492.53;5070335;28;20126;-76
2022/02/16 07:59:21;;;;;;;21.48;8.27;;;;;;;8.34;100.00;99499.56;5070330;28;20119;-80
2022/02/16 08:01:46;;;;;;;21.42;8.35;;;;;;;8.34;100.00;99503.94;5070571;28;20013;-78
2022/02/16 08:04:17;;;;;;;20.60;8.30;;;;;;;8.40;100.00;99513.53;5069692;28;20033;-79
2022/02/16 08:06:45;;;;;;;21.27;8.95;;;;;;;8.44;100.00;99504.75;5070475;28;20043;-78
2022/02/16 08:09:10;;;;;;;21.30;8.50;;;;;;;8.44;100.00;99496.84;5070795;28;20037;-77
2022/02/16 08:11:37;;;;;;;21.33;8.50;;;;;;;8.49;100.00;99502.97;5069671;28;20073;-80
2022/02/16 08:14:03;;;;;;;20.70;7.65;;;;;;;8.54;100.00;99482.72;5067218;28;20024;-81
2022/02/16 08:16:29;;;;;;;20.58;7.97;;;;;;;8.57;100.00;99501.13;5068843;28;20033;-79
2022/02/16 08:18:55;;;;;;;21.42;8.65;;;;;;;8.60;100.00;99501.09;5069046;28;20090;-81
2022/02/16 08:21:20;;;;;;;20.90;8.40;;;;;;;8.61;100.00;99513.41;5068831;28;20020;-80
2022/02/16 08:23:45;;;;;;;21.83;8.85;;;;;;;8.63;100.00;99532.69;5068776;28;20032;-78
2022/02/16 08:26:11;;;;;;;21.38;8.40;;;;;;;8.68;100.00;99541.44;5068302;28;20016;-82
2022/02/16 08:28:37;;;;;;;21.25;8.02;;;;;;;8.72;100.00;99535.25;5070276;28;20068;-80
2022/02/16 08:31:03;;;;;;;20.70;7.82;;;;;;;8.73;100.00;99530.84;5069812;28;20032;-80
2022/02/16 08:33:28;;;;;;;21.00;8.20;;;;;;;8.75;100.00;99536.97;5069678;28;20024;-80
2022/02/16 08:35:54;;;;;;;20.38;7.47;;;;;;;8.80;100.00;99558.03;5068827;28;20048;-80
2022/02/16 08:38:19;;;;;;;18.55;6.95;;;;;;;8.88;100.00;99553.56;5069927;28;20147;-80
2022/02/16 08:40:45;;;;;;;18.50;6.35;;;;;;;8.89;100.00;99581.66;5069203;28;20460;-81
2022/02/16 08:43:10;;;;;;;19.38;7.10;;;;;;;8.91;100.00;99582.50;5069613;28;20594;-80
2022/02/16 08:45:35;;;;;;;18.52;6.40;;;;;;;8.93;100.00;99580.75;5069937;28;20028;-81
2022/02/16 08:48:01;;;;;;;19.00;6.30;;;;;;;8.95;100.00;99573.69;5070212;28;20025;-81
2022/02/16 08:50:26;;;;;;;18.77;6.50;;;;;;;8.98;100.00;99592.13;5070454;28;20031;-82
2022/02/16 08:52:52;;;;;;;18.90;6.43;;;;;;;8.99;100.00;99583.31;5069424;28;20377;-80
2022/02/16 08:55:17;;;;;;;20.13;6.35;;;;;;;9.00;100.00;99573.66;5072513;28;20032;-81
2022/02/16 08:57:43;;;;;;;19.35;6.50;;;;;;;9.03;100.00;99565.75;5073486;28;20021;-81
2022/02/16 09:00:09;;;;;;;19.08;6.80;;;;;;;9.04;100.00;99562.19;5071984;28;20036;-81
2022/02/16 09:02:36;;;;;;;18.70;5.93;;;;;;;9.05;100.00;99551.63;5072840;28;20028;-80
2022/02/16 09:05:01;;;;;;;18.48;5.72;;;;;;;9.08;100.00;99548.97;5073943;28;20024;-81
2022/02/16 09:07:28;;;;;;;18.08;6.07;;;;;;;9.11;100.00;99552.47;5073384;28;20111;-80
2022/02/16 09:09:53;;;;;;;18.90;6.38;;;;;;;9.15;100.00;99552.41;5073501;28;20012;-80
2022/02/16 09:12:18;;;;;;;18.98;6.40;;;;;;;9.15;100.00;99559.47;5072785;28;20404;-80
2022/02/16 09:14:44;;;;;;;18.73;6.55;;;;;;;9.18;100.00;99565.56;5073427;28;20021;-81
2022/02/16 09:17:09;;;;;;;18.80;6.13;;;;;;;9.22;100.00;99547.97;5073535;28;20036;-81
2022/02/16 09:19:35;;;;;;;18.67;5.93;;;;;;;9.23;100.00;99554.97;5073277;28;20056;-81
2022/02/16 09:22:01;;;;;;;18.92;5.63;;;;;;;9.25;100.00;99574.31;5072995;28;20056;-80
2022/02/16 09:24:27;;;;;;;19.00;6.50;;;;;;;9.27;100.00;99576.91;5072793;28;20454;-81
2022/02/16 09:26:52;;;;;;;19.08;6.65;;;;;;;9.29;100.00;99576.03;5073084;28;20115;-81
2022/02/16 09:29:18;;;;;;;19.35;6.55;;;;;;;9.32;100.00;99590.91;5072700;28;20028;-80
2022/02/16 09:31:43;;;;;;;19.77;7.05;;;;;;;9.36;100.00;99600.53;5073135;28;20056;-79
2022/02/16 09:34:08;;;;;;;20.10;7.13;;;;;;;9.37;100.00;99605.81;5072517;28;20029;-80
2022/02/16 09:36:35;;;;;;;21.40;8.07;;;;;;;9.36;100.00;99596.16;5072440;28;20048;-76
2022/02/16 09:39:01;;;;;;;21.80;8.20;;;;;;;9.38;100.00;99591.72;5071065;28;20032;-80
2022/02/16 09:41:26;;;;;;;22.42;8.40;;;;;;;9.39;100.00;99590.84;5071241;28;20107;-81
2022/02/16 09:43:53;;;;;;;21.60;8.07;;;;;;;9.42;100.00;99593.47;5070523;28;20035;-80
2022/02/16 09:46:18;;;;;;;22.88;8.88;;;;;;;9.42;100.00;99592.56;5072148;28;20023;-80
2022/02/16 09:48:44;;;;;;;22.75;8.63;;;;;;;9.45;100.00;99610.13;5069843;28;20368;-80
2022/02/16 09:51:10;;;;;;;23.85;9.60;;;;;;;9.48;100.00;99583.72;5072697;28;20028;-81
2022/02/16 09:53:36;;;;;;;23.20;9.55;;;;;;;9.52;100.00;99573.13;5072373;28;20421;-80
2022/02/16 09:56:03;;;;;;;24.23;9.63;;;;;;;9.57;100.00;99584.50;5072623;28;20024;-80
2022/02/16 09:58:29;;;;;;;23.20;9.68;;;;;;;9.60;100.00;99576.53;5070608;28;20036;-80
2022/02/16 10:01:06;;;;;;;24.67;10.40;;;;;;;9.63;100.00;99596.75;5071680;28;20025;-80
2022/02/16 10:03:33;;;;;;;25.02;11.15;;;;;;;9.63;100.00;99588.81;5071381;28;20475;-80
2022/02/16 10:05:58;;;;;;;26.23;11.88;;;;;;;9.66;100.00;99591.41;5070297;28;20437;-80
2022/02/16 10:08:44;;;;;;;26.30;11.30;;;;;;;9.75;100.00;99586.03;5071575;28;20107;-80
2022/02/16 10:11:15;;;;;;;26.38;12.23;;;;;;;9.71;100.00;99604.56;5071730;28;20487;-74
2022/02/16 10:13:41;;;;;;;27.10;12.95;;;;;;;9.76;100.00;99587.78;5071851;28;20028;-78
2022/02/16 10:16:07;;;;;;;28.02;13.48;;;;;;;9.82;100.00;99613.22;5072027;28;20035;-77
2022/02/16 10:18:33;;;;;;;27.77;12.98;;;;;;;9.80;100.00;99622.06;5072238;28;20032;-76
2022/02/16 10:21:12;;;;;;;27.75;13.52;;;;;;;9.85;100.00;99601.75;5071997;28;20035;-74
2022/02/16 10:23:44;;;;;;;27.98;13.50;;;;;;;9.86;100.00;99583.28;5071320;28;20491;-75
2022/02/16 10:26:09;;;;;;;28.05;14.73;;;;;;;9.86;100.00;99579.72;5071870;28;20047;-76
2022/02/16 10:28:45;;;;;;;27.55;13.32;;;;;;;9.92;100.00;99577.91;5072206;28;20024;-75
2022/02/16 10:31:11;;;;;;;29.75;15.02;;;;;;;9.92;100.00;99561.19;5072315;28;20033;-73
2022/02/16 10:33:39;;;;;;;29.88;15.68;;;;;;;9.99;100.00;99568.16;5069718;28;20025;-73
2022/02/16 10:36:14;;;;;;;30.90;16.88;;;;;;;9.98;100.00;99574.31;5070155;28;20135;-74
2022/02/16 10:38:54;;;;;;;30.52;17.00;;;;;;;10.08;100.00;99573.28;5069838;28;20091;-80
2022/02/16 10:41:46;;;;;;;32.35;18.58;;;;;;;10.07;100.00;99584.75;5070598;28;20032;-79
2022/02/16 10:44:21;;;;;;;32.97;18.30;;;;;;;10.04;100.00;99583.91;5070200;28;20036;-75
2022/02/16 10:47:02;;;;;;;33.00;18.08;;;;;;;10.04;100.00;99574.22;5069781;28;20558;-75
2022/02/16 10:49:28;;;;;;;35.33;19.95;;;;;;;10.02;100.00;99572.47;5071117;28;20060;-78
2022/02/16 10:52:14;;;;;;;34.55;20.13;;;;;;;10.05;100.00;99559.28;5070208;28;20368;-75
2022/02/16 10:54:52;;;;;;;36.40;20.67;;;;;;;10.03;100.00;99568.97;5070228;28;20036;-75
2022/02/16 10:57:18;;;;;;;36.90;21.02;;;;;;;10.04;100.00;99534.63;5070696;28;20036;-77
2022/02/16 10:59:43;;;;;;;36.95;20.02;;;;;;;10.07;100.00;99546.91;5071430;28;20479;-76
2022/02/16 11:02:09;;;;;;;35.53;19.92;;;;;;;10.07;100.00;99531.06;5071337;28;20056;-75
2022/02/16 11:04:36;;;;;;;35.63;19.75;;;;;;;10.08;100.00;99525.75;5070529;28;20016;-78
2022/02/16 11:07:02;;;;;;;35.35;19.02;;;;;;;10.11;100.00;99538.06;5071284;28;20128;-78
2022/02/16 11:09:38;;;;;;;34.28;17.08;;;;;;;10.13;100.00;99560.00;5070961;28;20043;-74
2022/02/16 11:12:04;;;;;;;33.03;17.23;;;;;;;10.11;100.00;99552.13;5069699;28;20031;-75
2022/02/16 11:14:33;;;;;;;34.00;16.85;;;;;;;10.12;100.00;99561.78;5071141;28;20028;-74